sensor_id;sensor_type;location;lat;lon;timestamp;temperature;humidity
36442;DHT22;64346;50.820;16.274;2023-04-24T00:00:09;13.60;99.90
36442;DHT22;64346;50.820;16.274;2023-04-24T00:02:56;13.70;99.90
36442;DHT22;64346;50.820;16.274;2023-04-24T00:05:27;13.70;99.90
36442;DHT22;64346;50.820;16.274;2023-04-24T00:07:54;13.70;99.90
36442;DHT22;64346;50.820;16.274;2023-04-24T00:10:21;13.80;99.90
36442;DHT22;64346;50.820;16.274;2023-04-24T00:12:51;13.80;99.90
36442;DHT22;64346;50.820;16.274;2023-04-24T00:15:18;13.80;99.90
36442;DHT22;64346;50.820;16.274;2023-04-24T00:17:47;13.80;99.90
36442;DHT22;64346;50.820;16.274;2023-04-24T00:20:15;13.80;99.90
36442;DHT22;64346;50.820;16.274;2023-04-24T00:22:42;13.90;99.90
36442;DHT22;64346;50.820;16.274;2023-04-24T00:25:09;13.80;99.90
36442;DHT22;64346;50.820;16.274;2023-04-24T00:27:36;13.80;99.90
36442;DHT22;64346;50.820;16.274;2023-04-24T00:30:04;13.80;99.90
36442;DHT22;64346;50.820;16.274;2023-04-24T00:32:33;13.80;99.90
36442;DHT22;64346;50.820;16.274;2023-04-24T00:35:01;13.80;99.90
36442;DHT22;64346;50.820;16.274;2023-04-24T00:37:30;13.80;99.90
36442;DHT22;64346;50.820;16.274;2023-04-24T00:39:57;13.70;99.90
36442;DHT22;64346;50.820;16.274;2023-04-24T00:42:27;13.60;99.90
36442;DHT22;64346;50.820;16.274;2023-04-24T00:44:56;13.60;99.90
36442;DHT22;64346;50.820;16.274;2023-04-24T00:47:23;13.60;99.90
36442;DHT22;64346;50.820;16.274;2023-04-24T00:49:52;13.70;99.90
36442;DHT22;64346;50.820;16.274;2023-04-24T00:52:21;13.60;99.90
36442;DHT22;64346;50.820;16.274;2023-04-24T00:54:49;13.60;99.90
36442;DHT22;64346;50.820;16.274;2023-04-24T00:57:16;13.60;99.90
36442;DHT22;64346;50.820;16.274;2023-04-24T00:59:44;13.60;99.90
36442;DHT22;64346;50.820;16.274;2023-04-24T01:02:12;13.70;99.90
36442;DHT22;64346;50.820;16.274;2023-04-24T01:04:40;13.70;99.90
36442;DHT22;64346;50.820;16.274;2023-04-24T01:07:08;13.70;99.90
36442;DHT22;64346;50.820;16.274;2023-04-24T01:09:40;13.80;99.90
36442;DHT22;64346;50.820;16.274;2023-04-24T01:12:10;13.80;99.90
36442;DHT22;64346;50.820;16.274;2023-04-24T01:14:40;13.80;99.90
36442;DHT22;64346;50.820;16.274;2023-04-24T01:17:07;13.70;99.90
36442;DHT22;64346;50.820;16.274;2023-04-24T01:19:36;13.70;99.90
36442;DHT22;64346;50.820;16.274;2023-04-24T01:22:09;13.80;99.90
36442;DHT22;64346;50.820;16.274;2023-04-24T01:24:37;13.80;99.90
36442;DHT22;64346;50.820;16.274;2023-04-24T01:27:08;13.80;99.90
36442;DHT22;64346;50.820;16.274;2023-04-24T01:29:36;13.80;99.90
36442;DHT22;64346;50.820;16.274;2023-04-24T01:32:06;13.80;99.90
36442;DHT22;64346;50.820;16.274;2023-04-24T01:34:36;13.80;99.90
36442;DHT22;64346;50.820;16.274;2023-04-24T01:37:04;13.80;99.90
36442;DHT22;64346;50.820;16.274;2023-04-24T01:39:31;13.80;99.90
36442;DHT22;64346;50.820;16.274;2023-04-24T01:42:01;13.80;99.90
36442;DHT22;64346;50.820;16.274;2023-04-24T01:44:28;13.70;99.90
36442;DHT22;64346;50.820;16.274;2023-04-24T01:46:56;13.80;99.90
36442;DHT22;64346;50.820;16.274;2023-04-24T01:49:24;13.80;99.90
36442;DHT22;64346;50.820;16.274;2023-04-24T01:51:51;13.70;99.90
36442;DHT22;64346;50.820;16.274;2023-04-24T01:54:18;13.80;99.90
36442;DHT22;64346;50.820;16.274;2023-04-24T01:56:45;13.70;99.90
36442;DHT22;64346;50.820;16.274;2023-04-24T01:59:13;13.70;99.90
36442;DHT22;64346;50.820;16.274;2023-04-24T02:01:42;13.70;99.90
36442;DHT22;64346;50.820;16.274;2023-04-24T02:04:14;13.70;99.90
36442;DHT22;64346;50.820;16.274;2023-04-24T02:06:41;13.70;99.90
36442;DHT22;64346;50.820;16.274;2023-04-24T02:09:08;13.70;99.90
36442;DHT22;64346;50.820;16.274;2023-04-24T02:11:36;13.70;99.90
36442;DHT22;64346;50.820;16.274;2023-04-24T02:14:04;13.70;99.90
36442;DHT22;64346;50.820;16.274;2023-04-24T02:16:31;13.70;99.90
36442;DHT22;64346;50.820;16.274;2023-04-24T02:18:59;13.70;99.90
36442;DHT22;64346;50.820;16.274;2023-04-24T02:21:26;13.70;99.90
36442;DHT22;64346;50.820;16.274;2023-04-24T02:23:56;13.70;99.90
36442;DHT22;64346;50.820;16.274;2023-04-24T02:26:23;13.70;99.90
36442;DHT22;64346;50.820;16.274;2023-04-24T02:28:50;13.70;99.90
36442;DHT22;64346;50.820;16.274;2023-04-24T02:31:17;13.70;99.90
36442;DHT22;64346;50.820;16.274;2023-04-24T02:33:45;13.60;99.90
36442;DHT22;64346;50.820;16.274;2023-04-24T02:36:12;13.60;99.90
36442;DHT22;64346;50.820;16.274;2023-04-24T02:38:39;13.60;99.90
36442;DHT22;64346;50.820;16.274;2023-04-24T02:41:09;13.60;99.90
36442;DHT22;64346;50.820;16.274;2023-04-24T02:43:36;13.60;99.90
36442;DHT22;64346;50.820;16.274;2023-04-24T02:46:03;13.50;99.90
36442;DHT22;64346;50.820;16.274;2023-04-24T02:48:31;13.50;99.90
36442;DHT22;64346;50.820;16.274;2023-04-24T02:50:58;13.50;99.90
36442;DHT22;64346;50.820;16.274;2023-04-24T02:53:25;13.40;99.90
36442;DHT22;64346;50.820;16.274;2023-04-24T02:55:52;13.50;99.90
36442;DHT22;64346;50.820;16.274;2023-04-24T02:58:19;13.50;99.90
36442;DHT22;64346;50.820;16.274;2023-04-24T03:03:28;13.50;99.90
36442;DHT22;64346;50.820;16.274;2023-04-24T03:05:56;13.40;99.90
36442;DHT22;64346;50.820;16.274;2023-04-24T03:08:23;13.30;99.90
36442;DHT22;64346;50.820;16.274;2023-04-24T03:10:51;13.20;99.90
36442;DHT22;64346;50.820;16.274;2023-04-24T03:13:18;13.10;99.90
36442;DHT22;64346;50.820;16.274;2023-04-24T03:15:45;13.10;99.90
36442;DHT22;64346;50.820;16.274;2023-04-24T03:18:12;13.00;99.90
36442;DHT22;64346;50.820;16.274;2023-04-24T03:20:40;12.90;99.90
36442;DHT22;64346;50.820;16.274;2023-04-24T03:23:07;12.90;99.90
36442;DHT22;64346;50.820;16.274;2023-04-24T03:25:39;12.90;99.90
36442;DHT22;64346;50.820;16.274;2023-04-24T03:28:06;12.80;99.90
36442;DHT22;64346;50.820;16.274;2023-04-24T03:30:33;12.80;99.90
36442;DHT22;64346;50.820;16.274;2023-04-24T03:33:00;12.80;99.90
36442;DHT22;64346;50.820;16.274;2023-04-24T03:35:28;12.70;99.90
36442;DHT22;64346;50.820;16.274;2023-04-24T03:37:55;12.70;99.90
36442;DHT22;64346;50.820;16.274;2023-04-24T03:40:22;12.70;99.90
36442;DHT22;64346;50.820;16.274;2023-04-24T03:42:49;12.70;99.90
36442;DHT22;64346;50.820;16.274;2023-04-24T03:45:21;12.80;99.90
36442;DHT22;64346;50.820;16.274;2023-04-24T03:47:48;12.70;99.90
36442;DHT22;64346;50.820;16.274;2023-04-24T03:50:16;12.80;99.90
36442;DHT22;64346;50.820;16.274;2023-04-24T03:52:43;12.80;99.90
36442;DHT22;64346;50.820;16.274;2023-04-24T03:55:10;12.70;99.90
36442;DHT22;64346;50.820;16.274;2023-04-24T03:57:37;12.70;99.90
36442;DHT22;64346;50.820;16.274;2023-04-24T04:00:11;12.70;99.90
36442;DHT22;64346;50.820;16.274;2023-04-24T04:02:38;12.70;99.90
36442;DHT22;64346;50.820;16.274;2023-04-24T04:05:10;12.60;99.90
36442;DHT22;64346;50.820;16.274;2023-04-24T04:07:39;12.60;99.90
36442;DHT22;64346;50.820;16.274;2023-04-24T04:10:07;12.70;99.90
36442;DHT22;64346;50.820;16.274;2023-04-24T04:12:36;12.80;99.90
36442;DHT22;64346;50.820;16.274;2023-04-24T04:15:04;12.80;99.90
36442;DHT22;64346;50.820;16.274;2023-04-24T04:17:31;12.80;99.90
36442;DHT22;64346;50.820;16.274;2023-04-24T04:19:58;12.80;99.90
36442;DHT22;64346;50.820;16.274;2023-04-24T04:22:25;12.80;99.90
36442;DHT22;64346;50.820;16.274;2023-04-24T04:24:55;12.70;99.90
36442;DHT22;64346;50.820;16.274;2023-04-24T04:27:25;12.70;99.90
36442;DHT22;64346;50.820;16.274;2023-04-24T04:29:52;12.80;99.90
36442;DHT22;64346;50.820;16.274;2023-04-24T04:32:19;12.80;99.90
36442;DHT22;64346;50.820;16.274;2023-04-24T04:34:49;12.90;99.90
36442;DHT22;64346;50.820;16.274;2023-04-24T04:37:16;12.90;99.90
36442;DHT22;64346;50.820;16.274;2023-04-24T04:39:46;12.90;99.90
36442;DHT22;64346;50.820;16.274;2023-04-24T04:42:13;12.90;99.90
36442;DHT22;64346;50.820;16.274;2023-04-24T04:44:40;12.80;99.90
36442;DHT22;64346;50.820;16.274;2023-04-24T04:47:07;12.80;99.90
36442;DHT22;64346;50.820;16.274;2023-04-24T04:49:35;12.80;99.90
36442;DHT22;64346;50.820;16.274;2023-04-24T04:52:02;12.80;99.90
36442;DHT22;64346;50.820;16.274;2023-04-24T04:54:29;12.70;99.90
36442;DHT22;64346;50.820;16.274;2023-04-24T04:56:56;12.70;99.90
36442;DHT22;64346;50.820;16.274;2023-04-24T04:59:24;12.70;99.90
36442;DHT22;64346;50.820;16.274;2023-04-24T05:01:53;12.80;99.90
36442;DHT22;64346;50.820;16.274;2023-04-24T05:04:20;12.80;99.90
36442;DHT22;64346;50.820;16.274;2023-04-24T05:06:48;12.90;99.90
36442;DHT22;64346;50.820;16.274;2023-04-24T05:09:15;13.00;99.90
36442;DHT22;64346;50.820;16.274;2023-04-24T05:11:45;13.00;99.90
36442;DHT22;64346;50.820;16.274;2023-04-24T05:14:12;13.10;99.90
36442;DHT22;64346;50.820;16.274;2023-04-24T05:16:40;13.20;99.90
36442;DHT22;64346;50.820;16.274;2023-04-24T05:19:07;13.20;99.90
36442;DHT22;64346;50.820;16.274;2023-04-24T05:21:34;13.20;99.90
36442;DHT22;64346;50.820;16.274;2023-04-24T05:24:01;13.20;99.90
36442;DHT22;64346;50.820;16.274;2023-04-24T05:26:29;13.20;99.90
36442;DHT22;64346;50.820;16.274;2023-04-24T05:28:56;13.20;99.90
36442;DHT22;64346;50.820;16.274;2023-04-24T05:31:23;13.30;99.90
36442;DHT22;64346;50.820;16.274;2023-04-24T05:33:50;13.30;99.90
36442;DHT22;64346;50.820;16.274;2023-04-24T05:36:20;13.30;99.90
36442;DHT22;64346;50.820;16.274;2023-04-24T05:38:47;13.30;99.90
36442;DHT22;64346;50.820;16.274;2023-04-24T05:41:14;13.30;99.90
36442;DHT22;64346;50.820;16.274;2023-04-24T05:43:44;13.20;99.90
36442;DHT22;64346;50.820;16.274;2023-04-24T05:46:11;13.10;99.90
36442;DHT22;64346;50.820;16.274;2023-04-24T05:48:39;13.10;99.90
36442;DHT22;64346;50.820;16.274;2023-04-24T05:51:06;13.00;99.90
36442;DHT22;64346;50.820;16.274;2023-04-24T05:53:33;13.00;99.90
36442;DHT22;64346;50.820;16.274;2023-04-24T05:56:00;13.00;99.90
36442;DHT22;64346;50.820;16.274;2023-04-24T05:58:30;13.00;99.90
36442;DHT22;64346;50.820;16.274;2023-04-24T06:00:57;13.10;99.90
36442;DHT22;64346;50.820;16.274;2023-04-24T06:03:24;13.10;99.90
36442;DHT22;64346;50.820;16.274;2023-04-24T06:05:52;13.10;99.90
36442;DHT22;64346;50.820;16.274;2023-04-24T06:08:19;13.10;99.90
36442;DHT22;64346;50.820;16.274;2023-04-24T06:10:48;13.20;99.90
36442;DHT22;64346;50.820;16.274;2023-04-24T06:13:16;13.10;99.90
36442;DHT22;64346;50.820;16.274;2023-04-24T06:15:43;13.20;99.90
36442;DHT22;64346;50.820;16.274;2023-04-24T06:18:11;13.20;99.90
36442;DHT22;64346;50.820;16.274;2023-04-24T06:20:38;13.10;99.90
36442;DHT22;64346;50.820;16.274;2023-04-24T06:23:06;13.10;99.90
36442;DHT22;64346;50.820;16.274;2023-04-24T06:25:35;13.10;99.90
36442;DHT22;64346;50.820;16.274;2023-04-24T06:28:02;13.10;99.90
36442;DHT22;64346;50.820;16.274;2023-04-24T06:30:30;13.10;99.90
36442;DHT22;64346;50.820;16.274;2023-04-24T06:32:57;13.10;99.90
36442;DHT22;64346;50.820;16.274;2023-04-24T06:35:39;13.10;99.90
36442;DHT22;64346;50.820;16.274;2023-04-24T06:38:06;13.00;99.90
36442;DHT22;64346;50.820;16.274;2023-04-24T06:40:35;13.00;99.90
36442;DHT22;64346;50.820;16.274;2023-04-24T06:43:07;12.90;99.90
36442;DHT22;64346;50.820;16.274;2023-04-24T06:45:34;12.90;99.90
36442;DHT22;64346;50.820;16.274;2023-04-24T06:48:04;12.90;99.90
36442;DHT22;64346;50.820;16.274;2023-04-24T06:50:31;13.00;99.90
36442;DHT22;64346;50.820;16.274;2023-04-24T06:52:59;13.10;99.90
36442;DHT22;64346;50.820;16.274;2023-04-24T06:55:26;13.10;99.90
36442;DHT22;64346;50.820;16.274;2023-04-24T06:57:53;13.20;99.90
36442;DHT22;64346;50.820;16.274;2023-04-24T07:00:23;13.30;99.90
36442;DHT22;64346;50.820;16.274;2023-04-24T07:02:50;13.40;99.90
36442;DHT22;64346;50.820;16.274;2023-04-24T07:05:18;13.50;99.90
36442;DHT22;64346;50.820;16.274;2023-04-24T07:07:48;13.50;99.90
36442;DHT22;64346;50.820;16.274;2023-04-24T07:10:15;13.50;99.90
36442;DHT22;64346;50.820;16.274;2023-04-24T07:12:45;13.60;99.90
36442;DHT22;64346;50.820;16.274;2023-04-24T07:15:12;13.60;99.90
36442;DHT22;64346;50.820;16.274;2023-04-24T07:17:39;13.70;99.90
36442;DHT22;64346;50.820;16.274;2023-04-24T07:20:07;13.70;99.90
36442;DHT22;64346;50.820;16.274;2023-04-24T07:22:34;13.70;99.90
36442;DHT22;64346;50.820;16.274;2023-04-24T07:25:01;13.70;99.90
36442;DHT22;64346;50.820;16.274;2023-04-24T07:27:29;13.70;99.90
36442;DHT22;64346;50.820;16.274;2023-04-24T07:29:56;13.60;99.90
36442;DHT22;64346;50.820;16.274;2023-04-24T07:32:23;13.70;99.90
36442;DHT22;64346;50.820;16.274;2023-04-24T07:34:50;13.90;99.90
36442;DHT22;64346;50.820;16.274;2023-04-24T07:37:17;14.10;99.90
36442;DHT22;64346;50.820;16.274;2023-04-24T07:39:45;14.40;99.90
36442;DHT22;64346;50.820;16.274;2023-04-24T07:42:12;14.80;99.90
36442;DHT22;64346;50.820;16.274;2023-04-24T07:44:39;15.10;99.90
36442;DHT22;64346;50.820;16.274;2023-04-24T07:47:07;15.70;99.90
36442;DHT22;64346;50.820;16.274;2023-04-24T07:49:39;16.00;99.90
36442;DHT22;64346;50.820;16.274;2023-04-24T07:52:06;16.10;99.90
36442;DHT22;64346;50.820;16.274;2023-04-24T07:54:33;16.10;99.90
36442;DHT22;64346;50.820;16.274;2023-04-24T07:57:03;16.10;99.90
36442;DHT22;64346;50.820;16.274;2023-04-24T07:59:35;16.10;99.90
36442;DHT22;64346;50.820;16.274;2023-04-24T08:02:05;16.00;99.90
36442;DHT22;64346;50.820;16.274;2023-04-24T08:04:33;15.90;99.90
36442;DHT22;64346;50.820;16.274;2023-04-24T08:07:00;15.80;99.90
36442;DHT22;64346;50.820;16.274;2023-04-24T08:09:28;15.60;99.90
36442;DHT22;64346;50.820;16.274;2023-04-24T08:11:55;15.40;99.90
36442;DHT22;64346;50.820;16.274;2023-04-24T08:14:22;15.20;99.90
36442;DHT22;64346;50.820;16.274;2023-04-24T08:16:53;15.10;99.90
36442;DHT22;64346;50.820;16.274;2023-04-24T08:19:20;15.00;99.90
36442;DHT22;64346;50.820;16.274;2023-04-24T08:21:48;15.00;99.90
36442;DHT22;64346;50.820;16.274;2023-04-24T08:24:15;14.90;99.90
36442;DHT22;64346;50.820;16.274;2023-04-24T08:26:42;14.90;99.90
36442;DHT22;64346;50.820;16.274;2023-04-24T08:29:09;14.90;99.90
36442;DHT22;64346;50.820;16.274;2023-04-24T08:31:37;15.10;99.90
36442;DHT22;64346;50.820;16.274;2023-04-24T08:34:06;15.10;99.90
36442;DHT22;64346;50.820;16.274;2023-04-24T08:36:36;15.20;99.90
36442;DHT22;64346;50.820;16.274;2023-04-24T08:39:13;15.20;99.90
36442;DHT22;64346;50.820;16.274;2023-04-24T08:41:42;15.30;99.90
36442;DHT22;64346;50.820;16.274;2023-04-24T08:44:10;15.30;99.90
36442;DHT22;64346;50.820;16.274;2023-04-24T08:46:40;15.30;99.90
36442;DHT22;64346;50.820;16.274;2023-04-24T08:49:09;15.50;99.90
36442;DHT22;64346;50.820;16.274;2023-04-24T08:51:37;15.60;99.90
36442;DHT22;64346;50.820;16.274;2023-04-24T08:54:04;15.80;99.90
36442;DHT22;64346;50.820;16.274;2023-04-24T08:56:36;15.90;99.90
36442;DHT22;64346;50.820;16.274;2023-04-24T08:59:05;16.10;99.90
36442;DHT22;64346;50.820;16.274;2023-04-24T09:01:35;16.00;99.90
36442;DHT22;64346;50.820;16.274;2023-04-24T09:04:04;15.80;99.90
36442;DHT22;64346;50.820;16.274;2023-04-24T09:06:34;15.70;99.90
36442;DHT22;64346;50.820;16.274;2023-04-24T09:09:02;15.80;99.90
36442;DHT22;64346;50.820;16.274;2023-04-24T09:11:31;16.00;99.90
36442;DHT22;64346;50.820;16.274;2023-04-24T09:13:58;16.00;99.90
36442;DHT22;64346;50.820;16.274;2023-04-24T09:16:29;15.90;99.90
36442;DHT22;64346;50.820;16.274;2023-04-24T09:18:56;15.80;99.90
36442;DHT22;64346;50.820;16.274;2023-04-24T09:21:24;15.90;99.90
36442;DHT22;64346;50.820;16.274;2023-04-24T09:24:08;15.90;99.90
36442;DHT22;64346;50.820;16.274;2023-04-24T09:26:44;15.90;99.90
36442;DHT22;64346;50.820;16.274;2023-04-24T09:29:16;15.80;99.90
36442;DHT22;64346;50.820;16.274;2023-04-24T09:31:46;15.90;99.90
36442;DHT22;64346;50.820;16.274;2023-04-24T09:34:14;16.00;99.90
36442;DHT22;64346;50.820;16.274;2023-04-24T09:36:46;16.00;99.90
36442;DHT22;64346;50.820;16.274;2023-04-24T09:39:15;15.70;99.90
36442;DHT22;64346;50.820;16.274;2023-04-24T09:41:50;15.50;99.90
36442;DHT22;64346;50.820;16.274;2023-04-24T09:44:20;15.50;99.90
36442;DHT22;64346;50.820;16.274;2023-04-24T09:46:53;15.60;99.90
36442;DHT22;64346;50.820;16.274;2023-04-24T09:49:26;15.60;99.90
36442;DHT22;64346;50.820;16.274;2023-04-24T09:52:08;15.60;99.90
36442;DHT22;64346;50.820;16.274;2023-04-24T09:54:36;15.70;99.90
36442;DHT22;64346;50.820;16.274;2023-04-24T09:57:04;15.80;99.90
36442;DHT22;64346;50.820;16.274;2023-04-24T09:59:33;15.90;99.90
36442;DHT22;64346;50.820;16.274;2023-04-24T10:02:17;16.00;99.90
36442;DHT22;64346;50.820;16.274;2023-04-24T10:04:57;16.00;99.90
36442;DHT22;64346;50.820;16.274;2023-04-24T10:07:27;15.90;99.90
36442;DHT22;64346;50.820;16.274;2023-04-24T10:09:54;15.90;99.90
36442;DHT22;64346;50.820;16.274;2023-04-24T10:12:23;15.90;99.90
36442;DHT22;64346;50.820;16.274;2023-04-24T10:14:51;15.60;99.90
36442;DHT22;64346;50.820;16.274;2023-04-24T10:17:22;15.50;99.90
36442;DHT22;64346;50.820;16.274;2023-04-24T10:19:55;15.50;99.90
36442;DHT22;64346;50.820;16.274;2023-04-24T10:22:25;15.60;99.90
36442;DHT22;64346;50.820;16.274;2023-04-24T10:24:53;15.60;99.90
36442;DHT22;64346;50.820;16.274;2023-04-24T10:27:23;15.60;99.90
36442;DHT22;64346;50.820;16.274;2023-04-24T10:29:53;15.70;99.90
36442;DHT22;64346;50.820;16.274;2023-04-24T10:32:20;15.90;99.90
36442;DHT22;64346;50.820;16.274;2023-04-24T10:34:48;16.00;99.90
36442;DHT22;64346;50.820;16.274;2023-04-24T10:37:18;16.30;99.90
36442;DHT22;64346;50.820;16.274;2023-04-24T10:39:50;16.30;99.90
36442;DHT22;64346;50.820;16.274;2023-04-24T10:42:17;16.50;99.90
36442;DHT22;64346;50.820;16.274;2023-04-24T10:44:47;16.40;99.90
36442;DHT22;64346;50.820;16.274;2023-04-24T10:47:17;16.40;99.90
36442;DHT22;64346;50.820;16.274;2023-04-24T10:49:47;16.30;99.90
36442;DHT22;64346;50.820;16.274;2023-04-24T10:52:17;16.20;99.90
36442;DHT22;64346;50.820;16.274;2023-04-24T10:54:47;16.20;99.90
36442;DHT22;64346;50.820;16.274;2023-04-24T10:59:45;15.90;99.90
36442;DHT22;64346;50.820;16.274;2023-04-24T11:02:36;15.80;99.90
36442;DHT22;64346;50.820;16.274;2023-04-24T11:05:04;15.60;99.90
36442;DHT22;64346;50.820;16.274;2023-04-24T11:10:43;15.60;99.90
36442;DHT22;64346;50.820;16.274;2023-04-24T11:13:14;15.60;99.90
36442;DHT22;64346;50.820;16.274;2023-04-24T11:15:44;15.60;99.90
36442;DHT22;64346;50.820;16.274;2023-04-24T11:18:15;15.70;99.90
36442;DHT22;64346;50.820;16.274;2023-04-24T11:20:43;15.70;99.90
36442;DHT22;64346;50.820;16.274;2023-04-24T11:23:12;15.80;99.90
36442;DHT22;64346;50.820;16.274;2023-04-24T11:25:43;15.80;99.90
36442;DHT22;64346;50.820;16.274;2023-04-24T11:28:14;15.70;99.90
36442;DHT22;64346;50.820;16.274;2023-04-24T11:30:41;15.70;99.90
36442;DHT22;64346;50.820;16.274;2023-04-24T11:33:09;15.60;99.90
36442;DHT22;64346;50.820;16.274;2023-04-24T11:35:40;15.60;99.90
36442;DHT22;64346;50.820;16.274;2023-04-24T11:38:12;15.40;99.90
36442;DHT22;64346;50.820;16.274;2023-04-24T11:40:51;15.30;99.90
36442;DHT22;64346;50.820;16.274;2023-04-24T11:43:19;15.10;99.90
36442;DHT22;64346;50.820;16.274;2023-04-24T11:45:49;14.90;99.90
36442;DHT22;64346;50.820;16.274;2023-04-24T11:48:20;14.70;99.90
36442;DHT22;64346;50.820;16.274;2023-04-24T11:50:52;14.60;99.90
36442;DHT22;64346;50.820;16.274;2023-04-24T11:53:20;14.50;99.90
36442;DHT22;64346;50.820;16.274;2023-04-24T11:55:47;14.30;99.90
36442;DHT22;64346;50.820;16.274;2023-04-24T11:58:17;14.10;99.90
36442;DHT22;64346;50.820;16.274;2023-04-24T12:00:56;14.00;99.90
36442;DHT22;64346;50.820;16.274;2023-04-24T12:03:26;14.00;99.90
36442;DHT22;64346;50.820;16.274;2023-04-24T12:06:08;14.00;99.90
36442;DHT22;64346;50.820;16.274;2023-04-24T12:08:39;14.00;99.90
36442;DHT22;64346;50.820;16.274;2023-04-24T12:11:10;14.00;99.90
36442;DHT22;64346;50.820;16.274;2023-04-24T12:13:40;13.90;99.90
36442;DHT22;64346;50.820;16.274;2023-04-24T12:16:10;13.90;99.90
36442;DHT22;64346;50.820;16.274;2023-04-24T12:18:44;13.80;99.90
36442;DHT22;64346;50.820;16.274;2023-04-24T12:23:48;13.70;99.90
36442;DHT22;64346;50.820;16.274;2023-04-24T12:26:20;13.60;99.90
36442;DHT22;64346;50.820;16.274;2023-04-24T12:28:48;13.60;99.90
36442;DHT22;64346;50.820;16.274;2023-04-24T12:31:16;13.60;99.90
36442;DHT22;64346;50.820;16.274;2023-04-24T12:33:44;13.60;99.90
36442;DHT22;64346;50.820;16.274;2023-04-24T12:36:13;13.60;99.90
36442;DHT22;64346;50.820;16.274;2023-04-24T12:38:44;13.60;99.90
36442;DHT22;64346;50.820;16.274;2023-04-24T12:41:14;13.60;99.90
36442;DHT22;64346;50.820;16.274;2023-04-24T12:43:54;13.70;99.90
36442;DHT22;64346;50.820;16.274;2023-04-24T12:46:21;13.60;99.90
36442;DHT22;64346;50.820;16.274;2023-04-24T12:48:55;13.70;99.90
36442;DHT22;64346;50.820;16.274;2023-04-24T12:51:26;13.60;99.90
36442;DHT22;64346;50.820;16.274;2023-04-24T12:53:54;13.70;99.90
36442;DHT22;64346;50.820;16.274;2023-04-24T12:56:24;13.70;99.90
36442;DHT22;64346;50.820;16.274;2023-04-24T12:58:57;13.80;99.90
36442;DHT22;64346;50.820;16.274;2023-04-24T13:01:24;13.80;99.90
36442;DHT22;64346;50.820;16.274;2023-04-24T13:03:54;13.90;99.90
36442;DHT22;64346;50.820;16.274;2023-04-24T13:06:28;13.90;99.90
36442;DHT22;64346;50.820;16.274;2023-04-24T13:09:04;13.90;99.90
36442;DHT22;64346;50.820;16.274;2023-04-24T13:11:37;14.00;99.90
36442;DHT22;64346;50.820;16.274;2023-04-24T13:14:04;14.00;99.90
36442;DHT22;64346;50.820;16.274;2023-04-24T13:16:39;14.10;99.90
36442;DHT22;64346;50.820;16.274;2023-04-24T13:19:14;14.00;99.90
36442;DHT22;64346;50.820;16.274;2023-04-24T13:21:44;14.10;99.90
36442;DHT22;64346;50.820;16.274;2023-04-24T13:24:11;14.00;99.90
36442;DHT22;64346;50.820;16.274;2023-04-24T13:26:38;14.00;99.90
36442;DHT22;64346;50.820;16.274;2023-04-24T13:29:07;13.90;99.90
36442;DHT22;64346;50.820;16.274;2023-04-24T13:31:36;13.90;99.90
36442;DHT22;64346;50.820;16.274;2023-04-24T13:34:04;13.80;99.90
36442;DHT22;64346;50.820;16.274;2023-04-24T13:36:31;13.70;99.90
36442;DHT22;64346;50.820;16.274;2023-04-24T13:39:04;13.60;99.90
36442;DHT22;64346;50.820;16.274;2023-04-24T13:41:35;13.60;99.90
36442;DHT22;64346;50.820;16.274;2023-04-24T13:44:03;13.60;99.90
36442;DHT22;64346;50.820;16.274;2023-04-24T13:46:31;13.60;99.90
36442;DHT22;64346;50.820;16.274;2023-04-24T13:48:58;13.70;99.90
36442;DHT22;64346;50.820;16.274;2023-04-24T13:51:26;13.70;99.90
36442;DHT22;64346;50.820;16.274;2023-04-24T13:53:56;13.80;99.90
36442;DHT22;64346;50.820;16.274;2023-04-24T13:56:23;13.90;99.90
36442;DHT22;64346;50.820;16.274;2023-04-24T13:58:55;14.00;99.90
36442;DHT22;64346;50.820;16.274;2023-04-24T14:01:25;14.10;99.90
36442;DHT22;64346;50.820;16.274;2023-04-24T14:03:54;14.10;99.90
36442;DHT22;64346;50.820;16.274;2023-04-24T14:06:23;14.20;99.90
36442;DHT22;64346;50.820;16.274;2023-04-24T14:08:53;14.20;99.90
36442;DHT22;64346;50.820;16.274;2023-04-24T14:11:20;14.20;99.90
36442;DHT22;64346;50.820;16.274;2023-04-24T14:13:54;14.10;99.90
36442;DHT22;64346;50.820;16.274;2023-04-24T14:16:21;14.10;99.90
36442;DHT22;64346;50.820;16.274;2023-04-24T14:18:49;14.10;99.90
36442;DHT22;64346;50.820;16.274;2023-04-24T14:21:20;14.10;99.90
36442;DHT22;64346;50.820;16.274;2023-04-24T14:23:48;14.20;99.90
36442;DHT22;64346;50.820;16.274;2023-04-24T14:26:15;14.20;99.90
36442;DHT22;64346;50.820;16.274;2023-04-24T14:28:42;14.20;99.90
36442;DHT22;64346;50.820;16.274;2023-04-24T14:31:09;14.20;99.90
36442;DHT22;64346;50.820;16.274;2023-04-24T14:33:37;14.30;99.90
36442;DHT22;64346;50.820;16.274;2023-04-24T14:36:08;14.40;99.90
36442;DHT22;64346;50.820;16.274;2023-04-24T14:38:37;14.60;99.90
36442;DHT22;64346;50.820;16.274;2023-04-24T14:41:04;14.70;99.90
36442;DHT22;64346;50.820;16.274;2023-04-24T14:43:36;14.80;99.90
36442;DHT22;64346;50.820;16.274;2023-04-24T14:46:06;14.80;99.90
36442;DHT22;64346;50.820;16.274;2023-04-24T14:48:33;14.70;99.90
36442;DHT22;64346;50.820;16.274;2023-04-24T14:51:02;14.70;99.90
36442;DHT22;64346;50.820;16.274;2023-04-24T14:53:30;14.70;99.90
36442;DHT22;64346;50.820;16.274;2023-04-24T14:55:57;14.60;99.90
36442;DHT22;64346;50.820;16.274;2023-04-24T14:58:24;14.50;99.90
36442;DHT22;64346;50.820;16.274;2023-04-24T15:00:51;14.40;99.90
36442;DHT22;64346;50.820;16.274;2023-04-24T15:03:23;14.40;99.90
36442;DHT22;64346;50.820;16.274;2023-04-24T15:05:53;14.40;99.90
36442;DHT22;64346;50.820;16.274;2023-04-24T15:08:20;14.50;99.90
36442;DHT22;64346;50.820;16.274;2023-04-24T15:10:48;14.50;99.90
36442;DHT22;64346;50.820;16.274;2023-04-24T15:13:15;14.50;99.90
36442;DHT22;64346;50.820;16.274;2023-04-24T15:15:46;14.50;99.90
36442;DHT22;64346;50.820;16.274;2023-04-24T15:18:13;14.60;99.90
36442;DHT22;64346;50.820;16.274;2023-04-24T15:20:40;14.60;99.90
36442;DHT22;64346;50.820;16.274;2023-04-24T15:23:08;14.60;99.90
36442;DHT22;64346;50.820;16.274;2023-04-24T15:25:37;14.70;99.90
36442;DHT22;64346;50.820;16.274;2023-04-24T15:28:04;14.70;99.90
36442;DHT22;64346;50.820;16.274;2023-04-24T15:30:31;14.70;99.90
36442;DHT22;64346;50.820;16.274;2023-04-24T15:33:00;14.60;99.90
36442;DHT22;64346;50.820;16.274;2023-04-24T15:35:27;14.50;99.90